createdAt,value
2018-12-31T00:02:31.937Z,23.52
2018-12-31T00:05:00.618Z,21.60
2018-12-31T00:07:29.273Z,21.00
2018-12-31T00:09:57.917Z,29.18
2018-12-31T00:12:27.003Z,25.85
2018-12-31T00:14:55.658Z,24.47
2018-12-31T00:17:24.309Z,20.32
2018-12-31T00:19:53.035Z,19.12
2018-12-31T00:22:23.725Z,21.77
2018-12-31T00:24:52.352Z,22.73
2018-12-31T00:27:21.117Z,24.18
2018-12-31T00:29:49.981Z,23.32
2018-12-31T00:32:18.977Z,25.05
2018-12-31T00:34:47.611Z,24.27
2018-12-31T00:37:16.360Z,22.30
2018-12-31T00:39:44.992Z,24.05
2018-12-31T00:42:13.679Z,20.02
2018-12-31T00:44:42.351Z,20.77
2018-12-31T00:47:11.158Z,22.35
2018-12-31T00:49:39.828Z,23.35
2018-12-31T00:52:08.479Z,21.90
2018-12-31T00:54:37.178Z,30.27
2018-12-31T00:57:05.805Z,20.25
2018-12-31T00:59:35.413Z,21.90
2018-12-31T01:02:04.191Z,21.00
2018-12-31T01:04:32.871Z,20.77
2018-12-31T01:07:01.537Z,24.30
2018-12-31T01:09:30.190Z,25.27
2018-12-31T01:11:58.861Z,23.55
2018-12-31T01:14:27.542Z,21.37
2018-12-31T01:16:56.171Z,22.70
2018-12-31T01:19:24.808Z,21.37
2018-12-31T01:21:53.458Z,23.32
2018-12-31T01:24:22.236Z,26.05
2018-12-31T01:26:50.903Z,23.42
2018-12-31T01:29:19.603Z,23.05
2018-12-31T01:31:48.242Z,24.37
2018-12-31T01:34:16.915Z,23.05
2018-12-31T01:36:45.579Z,22.98
2018-12-31T01:39:14.267Z,23.40
2018-12-31T01:41:42.904Z,22.22
2018-12-31T01:44:11.610Z,26.90
2018-12-31T01:46:40.255Z,28.02
2018-12-31T01:49:08.922Z,24.95
2018-12-31T01:51:37.561Z,26.57
2018-12-31T01:54:06.194Z,24.47
2018-12-31T01:56:34.872Z,24.50
2018-12-31T01:59:03.542Z,31.37
2018-12-31T02:01:32.175Z,24.75
2018-12-31T02:04:00.837Z,25.43
2018-12-31T02:06:30.898Z,31.15
2018-12-31T02:08:59.548Z,22.65
2018-12-31T02:11:28.201Z,23.75
2018-12-31T02:13:56.985Z,23.73
2018-12-31T02:16:25.692Z,20.23
2018-12-31T02:18:54.339Z,21.42
2018-12-31T02:21:22.998Z,24.23
2018-12-31T02:23:51.660Z,24.15
2018-12-31T02:26:20.330Z,21.20
2018-12-31T02:28:48.994Z,20.85
2018-12-31T02:31:17.657Z,22.58
2018-12-31T02:33:46.276Z,19.17
2018-12-31T02:36:14.974Z,20.15
2018-12-31T02:38:43.641Z,22.32
2018-12-31T02:41:12.374Z,18.73
2018-12-31T02:43:41.015Z,19.85
2018-12-31T02:46:09.694Z,18.75
2018-12-31T02:48:38.375Z,19.55
2018-12-31T02:51:07.023Z,20.80
2018-12-31T02:53:35.655Z,24.02
2018-12-31T02:56:04.478Z,18.92
2018-12-31T02:58:33.110Z,19.48
2018-12-31T03:01:01.838Z,20.97
2018-12-31T03:03:30.455Z,19.20
2018-12-31T03:05:59.097Z,22.17
2018-12-31T03:08:27.760Z,19.12
2018-12-31T03:10:56.398Z,18.80
2018-12-31T03:13:25.030Z,18.75
2018-12-31T03:15:53.659Z,23.40
2018-12-31T03:18:22.390Z,22.60
2018-12-31T03:20:51.022Z,23.30
2018-12-31T03:23:19.648Z,19.37
2018-12-31T03:25:48.326Z,22.02
2018-12-31T03:28:16.973Z,20.50
2018-12-31T03:30:45.671Z,23.00
2018-12-31T03:33:14.298Z,21.87
2018-12-31T03:35:42.921Z,20.82
2018-12-31T03:38:11.576Z,21.57
2018-12-31T03:40:40.243Z,18.67
2018-12-31T04:36:23.760Z,21.57
2018-12-31T04:38:52.448Z,22.05
2018-12-31T04:41:21.216Z,22.07
2018-12-31T04:43:49.871Z,21.80
2018-12-31T04:46:18.497Z,22.17
2018-12-31T04:48:47.176Z,25.60
2018-12-31T04:51:15.832Z,19.57
2018-12-31T04:53:44.542Z,27.62
2018-12-31T04:56:13.151Z,28.98
2018-12-31T04:58:41.834Z,24.85
2018-12-31T05:01:10.477Z,22.05
2018-12-31T05:03:39.127Z,24.00
2018-12-31T05:06:07.751Z,24.18
2018-12-31T05:08:36.394Z,24.87
2018-12-31T05:11:05.071Z,24.98
2018-12-31T05:13:33.714Z,24.02
2018-12-31T05:16:02.362Z,26.82
2018-12-31T05:18:31.040Z,26.02
2018-12-31T05:20:59.702Z,27.60
2018-12-31T05:23:28.339Z,25.15
2018-12-31T05:26:15.990Z,22.30
2018-12-31T05:28:44.686Z,25.02
2018-12-31T05:31:13.315Z,22.48
2018-12-31T05:33:42.001Z,24.87
2018-12-31T05:36:10.664Z,25.37
2018-12-31T05:38:39.308Z,22.50
2018-12-31T05:41:07.937Z,24.50
2018-12-31T05:43:36.590Z,26.00
2018-12-31T05:46:05.323Z,25.10
2018-12-31T05:48:34.004Z,21.52
2018-12-31T05:51:02.672Z,21.60
2018-12-31T05:53:31.347Z,22.80
2018-12-31T05:56:00.003Z,24.20
2018-12-31T05:58:28.655Z,22.45
2018-12-31T06:00:57.274Z,21.10
2018-12-31T06:03:26.025Z,26.52
2018-12-31T06:05:54.703Z,24.82
2018-12-31T06:08:42.553Z,26.70
2018-12-31T06:11:11.165Z,27.20
2018-12-31T06:13:39.804Z,26.85
2018-12-31T06:16:08.473Z,28.95
2018-12-31T06:18:37.150Z,27.73
2018-12-31T06:21:05.808Z,27.30
2018-12-31T06:23:34.526Z,25.48
2018-12-31T06:26:03.236Z,27.25
2018-12-31T06:28:31.894Z,27.32
2018-12-31T06:31:00.991Z,25.12
2018-12-31T06:33:29.729Z,28.17
2018-12-31T06:35:58.351Z,27.17
2018-12-31T06:38:26.999Z,25.62
2018-12-31T06:40:55.686Z,30.23
2018-12-31T06:43:24.321Z,28.10
2018-12-31T06:45:52.970Z,30.65
2018-12-31T06:48:21.599Z,29.25
2018-12-31T06:50:50.263Z,26.02
2018-12-31T06:53:18.984Z,27.67
2018-12-31T06:55:47.647Z,29.40
2018-12-31T06:58:16.263Z,33.15
2018-12-31T07:00:44.904Z,34.38
2018-12-31T07:03:13.584Z,28.62
2018-12-31T07:05:42.248Z,29.02
2018-12-31T07:08:10.865Z,31.48
2018-12-31T07:10:39.502Z,29.50
2018-12-31T07:13:08.132Z,27.85
2018-12-31T07:15:36.767Z,31.45
2018-12-31T07:18:05.462Z,29.63
2018-12-31T07:20:34.106Z,33.18
2018-12-31T07:23:02.734Z,30.57
2018-12-31T07:25:31.377Z,30.95
2018-12-31T07:28:00.005Z,29.42
2018-12-31T07:30:28.644Z,29.42
2018-12-31T07:32:57.288Z,26.10
2018-12-31T07:35:26.088Z,23.85
2018-12-31T07:37:55.169Z,23.83
2018-12-31T07:40:23.986Z,29.00
2018-12-31T07:42:52.713Z,27.62
2018-12-31T07:45:21.481Z,28.23
2018-12-31T07:47:50.313Z,29.80
2018-12-31T07:50:19.009Z,33.55
2018-12-31T07:52:47.730Z,26.68
2018-12-31T07:55:16.382Z,24.30
2018-12-31T07:57:45.029Z,29.12
2018-12-31T08:00:13.671Z,29.42
2018-12-31T08:02:42.289Z,27.00
2018-12-31T08:05:10.919Z,29.57
2018-12-31T08:07:39.541Z,28.83
2018-12-31T08:10:08.257Z,30.25
2018-12-31T08:12:36.890Z,32.83
2018-12-31T08:15:08.286Z,34.27
2018-12-31T08:17:36.933Z,27.75
2018-12-31T08:20:05.931Z,28.35
2018-12-31T08:22:34.652Z,33.90
2018-12-31T08:25:03.398Z,27.95
2018-12-31T08:27:32.147Z,28.70
2018-12-31T08:30:00.791Z,38.35
2018-12-31T08:32:29.671Z,23.80
2018-12-31T08:34:58.953Z,23.25
2018-12-31T08:37:27.694Z,24.52
2018-12-31T08:39:56.313Z,23.87
2018-12-31T08:42:24.955Z,27.58
2018-12-31T08:44:53.615Z,27.15
2018-12-31T08:47:22.268Z,20.62
2018-12-31T08:49:50.967Z,21.00
2018-12-31T08:52:19.631Z,21.82
2018-12-31T08:54:48.287Z,21.40
2018-12-31T08:57:16.934Z,17.67
2018-12-31T08:59:45.618Z,21.60
2018-12-31T09:02:14.312Z,23.20
2018-12-31T09:04:42.960Z,19.05
2018-12-31T09:10:10.245Z,18.35
2018-12-31T09:12:38.958Z,19.35
2018-12-31T09:15:07.742Z,16.57
2018-12-31T09:17:36.369Z,19.60
2018-12-31T09:20:06.110Z,16.75
2018-12-31T09:22:34.807Z,17.60
2018-12-31T09:25:03.446Z,18.70
2018-12-31T09:27:32.180Z,16.70
2018-12-31T09:30:00.811Z,17.07
2018-12-31T09:32:29.454Z,19.32
2018-12-31T09:34:58.113Z,18.52
2018-12-31T09:37:26.766Z,15.00
2018-12-31T09:39:55.474Z,20.27
2018-12-31T09:42:24.097Z,19.73
2018-12-31T09:44:52.736Z,18.27
2018-12-31T09:47:21.402Z,19.07
2018-12-31T09:49:50.071Z,19.20
2018-12-31T09:52:18.715Z,16.00
2018-12-31T09:54:47.351Z,18.42
2018-12-31T09:57:35.230Z,20.32
2018-12-31T10:00:03.964Z,16.80
2018-12-31T10:02:32.731Z,18.00
2018-12-31T10:05:01.353Z,15.68
2018-12-31T10:07:30.164Z,16.62
2018-12-31T10:09:58.794Z,14.90
2018-12-31T10:12:27.507Z,17.62
2018-12-31T10:14:56.237Z,16.95
2018-12-31T10:17:24.913Z,16.70
2018-12-31T10:19:53.798Z,17.35
2018-12-31T10:22:22.561Z,14.33
2018-12-31T10:24:51.222Z,14.20
2018-12-31T10:27:20.025Z,16.17
2018-12-31T10:29:48.661Z,17.85
2018-12-31T10:32:17.348Z,16.67
2018-12-31T10:34:46.050Z,18.35
2018-12-31T10:37:14.714Z,16.90
2018-12-31T10:39:43.416Z,15.60
2018-12-31T10:42:31.102Z,19.50
2018-12-31T10:44:59.733Z,17.50
2018-12-31T10:47:28.385Z,14.93
2018-12-31T10:49:57.033Z,16.48
2018-12-31T10:52:25.725Z,15.70
2018-12-31T10:54:54.454Z,16.15
2018-12-31T10:57:23.098Z,15.93
2018-12-31T10:59:51.735Z,15.72
2018-12-31T11:02:20.395Z,15.40
2018-12-31T11:04:49.035Z,16.85
2018-12-31T11:07:17.680Z,14.40
2018-12-31T11:09:46.356Z,20.23
2018-12-31T11:12:14.990Z,16.48
2018-12-31T11:14:43.667Z,17.00
2018-12-31T11:17:12.322Z,15.93
2018-12-31T11:19:40.982Z,13.65
2018-12-31T11:22:09.632Z,17.85
2018-12-31T11:24:38.293Z,17.67
2018-12-31T11:27:06.925Z,15.55
2018-12-31T11:29:35.620Z,18.12
2018-12-31T11:32:04.328Z,18.95
2018-12-31T11:34:33.027Z,18.05
2018-12-31T11:37:01.661Z,16.90
2018-12-31T11:39:30.361Z,13.60
2018-12-31T11:41:59.035Z,15.15
2018-12-31T11:44:27.708Z,15.65
2018-12-31T11:46:56.355Z,15.60
2018-12-31T11:49:25.015Z,17.07
2018-12-31T11:51:53.661Z,15.85
2018-12-31T11:54:41.611Z,16.02
2018-12-31T11:57:10.216Z,18.27
2018-12-31T11:59:38.961Z,19.82
2018-12-31T12:02:07.588Z,15.68
2018-12-31T12:04:36.236Z,15.05
2018-12-31T12:07:04.983Z,13.98
2018-12-31T12:09:33.751Z,18.17
2018-12-31T12:12:02.401Z,15.80
2018-12-31T12:14:31.103Z,13.80
2018-12-31T12:16:59.826Z,15.70
2018-12-31T12:19:47.701Z,14.50
2018-12-31T12:22:16.448Z,14.28
2018-12-31T12:24:46.971Z,15.30
2018-12-31T12:27:15.738Z,13.22
2018-12-31T12:29:44.442Z,16.42
2018-12-31T12:32:13.148Z,14.10
2018-12-31T12:34:41.941Z,15.15
2018-12-31T12:37:12.344Z,14.98
2018-12-31T12:39:41.004Z,16.30
2018-12-31T12:42:09.650Z,15.15
2018-12-31T12:50:59.624Z,15.80
2018-12-31T12:56:30.550Z,13.25
2018-12-31T12:58:57.073Z,14.65
2018-12-31T13:01:26.673Z,15.88
2018-12-31T13:03:55.818Z,17.87
2018-12-31T13:06:43.929Z,12.28
2018-12-31T13:09:52.716Z,14.40
2018-12-31T13:21:44.171Z,12.63
2018-12-31T13:24:13.733Z,14.07
2018-12-31T13:26:43.651Z,13.48
2018-12-31T13:29:14.473Z,10.32
2018-12-31T13:31:43.394Z,12.10
2018-12-31T13:37:19.932Z,14.38
2018-12-31T13:39:49.627Z,17.10
2018-12-31T13:42:23.892Z,12.10
2018-12-31T13:47:31.413Z,18.15
2018-12-31T13:50:00.177Z,13.13
2018-12-31T13:52:30.042Z,12.82
2018-12-31T14:00:27.921Z,17.85
2018-12-31T14:02:57.213Z,14.13
2018-12-31T14:05:26.362Z,11.73
2018-12-31T14:16:52.385Z,13.48
2018-12-31T14:19:22.207Z,11.75
2018-12-31T14:21:51.460Z,13.65
2018-12-31T14:24:22.486Z,11.83
2018-12-31T14:27:14.735Z,12.47
2018-12-31T14:32:19.528Z,14.83
2018-12-31T14:38:09.144Z,12.55
2018-12-31T14:40:37.748Z,11.22
2018-12-31T14:43:06.428Z,13.80
2018-12-31T14:45:35.051Z,13.30
2018-12-31T14:48:03.746Z,11.73
2018-12-31T14:50:32.381Z,11.70
2018-12-31T14:53:01.122Z,15.00
2018-12-31T14:55:29.754Z,12.00
2018-12-31T14:57:58.387Z,18.23
2018-12-31T15:00:27.197Z,12.18
2018-12-31T15:02:55.905Z,13.80
2018-12-31T15:05:24.564Z,14.73
2018-12-31T15:07:53.197Z,14.95
2018-12-31T15:10:21.893Z,17.85
2018-12-31T15:12:50.754Z,17.77
2018-12-31T15:15:19.409Z,17.30
2018-12-31T15:17:48.122Z,14.73
2018-12-31T15:20:16.811Z,14.05
2018-12-31T15:22:45.508Z,15.28
2018-12-31T15:25:35.170Z,14.90
2018-12-31T15:28:03.782Z,15.00
2018-12-31T15:30:32.422Z,14.78
2018-12-31T15:33:01.146Z,15.25
2018-12-31T15:35:29.796Z,13.98
2018-12-31T15:37:58.505Z,14.25
2018-12-31T15:40:27.133Z,16.27
2018-12-31T15:42:55.781Z,16.25
2018-12-31T15:45:24.477Z,15.83
2018-12-31T15:47:53.295Z,15.30
2018-12-31T15:50:21.958Z,17.20
2018-12-31T15:52:50.616Z,15.55
2018-12-31T15:55:19.266Z,20.43
2018-12-31T15:57:47.948Z,18.05
2018-12-31T16:00:18.306Z,16.45
2018-12-31T16:02:46.991Z,16.70
2018-12-31T16:05:15.697Z,17.02
2018-12-31T16:07:45.975Z,14.47
2018-12-31T16:10:14.814Z,17.52
2018-12-31T16:12:45.185Z,16.50
2018-12-31T16:15:13.816Z,17.95
2018-12-31T16:17:42.537Z,16.62
2018-12-31T16:20:11.192Z,17.90
2018-12-31T16:22:39.862Z,15.78
2018-12-31T16:25:10.254Z,18.00
2018-12-31T16:27:38.898Z,18.02
2018-12-31T16:30:08.077Z,16.95
2018-12-31T16:32:36.816Z,15.40
2018-12-31T16:35:05.564Z,21.68
2018-12-31T16:37:35.942Z,18.10
2018-12-31T16:40:04.878Z,19.45
2018-12-31T16:42:33.723Z,16.62
2018-12-31T16:45:02.427Z,16.35
2018-12-31T16:47:31.378Z,15.70
2018-12-31T16:52:57.486Z,18.60
2018-12-31T16:55:26.145Z,18.52
2018-12-31T16:57:55.021Z,17.48
2018-12-31T17:00:23.640Z,14.68
2018-12-31T17:02:52.297Z,17.85
2018-12-31T17:05:21.046Z,16.87
2018-12-31T17:07:49.675Z,20.80
2018-12-31T17:10:18.363Z,19.20
2018-12-31T17:12:47.035Z,26.68
2018-12-31T17:15:15.855Z,21.50
2018-12-31T17:17:44.488Z,22.73
2018-12-31T17:20:13.150Z,23.35
2018-12-31T17:22:41.789Z,27.07
2018-12-31T17:25:10.438Z,31.65
2018-12-31T17:27:39.306Z,29.63
2018-12-31T17:30:08.155Z,22.40
2018-12-31T17:32:36.779Z,27.87
2018-12-31T17:35:05.626Z,22.00
2018-12-31T17:37:36.081Z,23.47
2018-12-31T17:40:04.947Z,21.95
2018-12-31T17:42:33.596Z,19.40
2018-12-31T17:45:02.239Z,18.95
2018-12-31T17:47:30.993Z,19.77
2018-12-31T17:50:01.355Z,20.40
2018-12-31T17:52:30.002Z,18.80
2018-12-31T17:54:58.637Z,26.85
2018-12-31T17:57:27.300Z,21.15
2018-12-31T17:59:55.958Z,21.50
2018-12-31T18:02:24.793Z,23.52
2018-12-31T18:04:53.491Z,21.33
2018-12-31T18:07:22.163Z,19.80
2018-12-31T18:09:50.782Z,22.17
2018-12-31T18:12:19.412Z,33.60
2018-12-31T18:14:48.080Z,177.25
2018-12-31T18:17:16.701Z,40.48
2018-12-31T18:19:45.387Z,27.30
2018-12-31T18:22:14.073Z,25.02
2018-12-31T18:24:42.831Z,25.55
2018-12-31T18:27:11.458Z,23.20
2018-12-31T18:29:40.831Z,22.25
2018-12-31T18:32:09.454Z,26.60
2018-12-31T18:34:38.106Z,21.90
2018-12-31T18:37:06.799Z,25.55
2018-12-31T18:39:35.438Z,27.50
2018-12-31T18:42:04.197Z,34.15
2018-12-31T18:44:32.828Z,25.65
2018-12-31T18:47:01.504Z,25.88
2018-12-31T18:49:30.138Z,24.37
2018-12-31T18:51:58.829Z,25.20
2018-12-31T18:54:27.664Z,28.23
2018-12-31T18:56:56.312Z,27.70
2018-12-31T18:59:24.954Z,25.77
2018-12-31T19:01:53.643Z,24.82
2018-12-31T19:04:22.373Z,28.77
2018-12-31T19:06:52.759Z,24.87
2018-12-31T19:09:21.423Z,27.98
2018-12-31T19:11:50.094Z,29.80
2018-12-31T19:14:18.735Z,28.60
2018-12-31T19:16:47.377Z,28.17
2018-12-31T19:19:16.107Z,27.15
2018-12-31T19:21:44.850Z,27.80
2018-12-31T19:24:13.502Z,27.17
2018-12-31T19:26:42.198Z,24.63
2018-12-31T19:29:10.928Z,24.70
2018-12-31T19:31:39.608Z,27.77
2018-12-31T19:34:08.312Z,26.12
2018-12-31T19:37:22.175Z,26.85
2018-12-31T19:50:17.155Z,25.80
2018-12-31T19:53:32.394Z,98.12
2018-12-31T20:11:51.867Z,24.57
2018-12-31T20:14:42.639Z,22.45
2018-12-31T20:23:27.721Z,26.40
2018-12-31T20:28:52.876Z,25.17
2018-12-31T20:32:27.359Z,25.65
2018-12-31T20:35:56.238Z,29.00
2018-12-31T20:42:13.032Z,26.55
2018-12-31T20:45:55.410Z,30.43
2018-12-31T20:51:35.199Z,29.90
2018-12-31T21:06:59.622Z,25.12
2018-12-31T21:10:09.661Z,28.87
2018-12-31T21:12:44.460Z,30.17
2018-12-31T21:22:06.508Z,53.33
2018-12-31T21:28:13.872Z,26.40
2018-12-31T21:34:03.675Z,29.12
2018-12-31T21:42:29.640Z,109.07
2018-12-31T21:45:05.541Z,39.30
2018-12-31T21:50:30.087Z,29.27
2018-12-31T21:52:59.897Z,33.42
2018-12-31T21:59:20.047Z,31.95
2018-12-31T22:05:15.645Z,27.15
2018-12-31T22:07:45.311Z,30.23
2018-12-31T22:10:40.865Z,31.42
2018-12-31T22:13:10.148Z,28.95
2018-12-31T22:15:39.541Z,37.80
2018-12-31T22:32:16.873Z,35.15
2018-12-31T22:34:45.998Z,36.75
2018-12-31T22:55:43.000Z,35.38
2018-12-31T23:07:13.964Z,294.13
2018-12-31T23:13:01.004Z,559.30
2018-12-31T23:24:26.258Z,317.02
2018-12-31T23:26:42.909Z,561.08
2018-12-31T23:29:12.139Z,410.48
2018-12-31T23:35:17.261Z,213.50
2018-12-31T23:37:59.370Z,131.05
2018-12-31T23:40:28.388Z,109.48
2018-12-31T23:42:57.887Z,68.78
2018-12-31T23:45:28.356Z,64.70
2018-12-31T23:47:57.625Z,109.03
2018-12-31T23:50:27.684Z,140.68
2018-12-31T23:55:47.317Z,81.17
